Adah, PA (15410)

5:21 AM EDT on July 29, 2016 (GMT -0400)
APRSWXNET | | Change Station

Elev 1122 ft 39.93 °N, 79.95 °W | Updated 26 minutes ago

Overcast
Overcast
68 °F
Feels Like 68 °F
N
1
Wind Variable Wind from WNW
Gusts 2.0 mph

Today
High -- | Low -- °F
--% Chance of Precip.
Yesterday
High -- | Low -- °F
Precip. -- in
Pressure 29.92 in
Visibility 7.0 miles
Clouds Scattered Clouds 200 ft
Overcast 700 ft
Dew Point 67 °F
Humidity 96%
Rainfall in
Snow Depth Not available.
6:15 AM 8:35 PM
Waning Crescent, 23% visible
METAR KMGW 290853Z AUTO 31003KT 7SM SCT002 OVC007 21/19 A2994 RMK AO2 CIG 005V009 SLP131 60000 T02060194 53000
Pressure 29.92 in
Visibility 7.0 miles
Clouds Scattered Clouds 200 ft
Overcast 700 ft
Dew Point 67 °F
Humidity 96%
Rainfall in
Snow Depth Not available.
6:15 AM 8:35 PM
Waning Crescent, 23% visible
METAR KMGW 290853Z AUTO 31003KT 7SM SCT002 OVC007 21/19 A2994 RMK AO2 CIG 005V009 SLP131 60000 T02060194 53000

10-Day Weather Forecast

Almanac

Astronomy

Jul. 29, 2016 Rise Set
Actual Time
Civil Twilight
Nautical Twilight
Astronomical Twilight
Moon
Length of Visible Light
Length of Day
Tomorrow will be .
, % of the Moon is Illuminated

Today's Extremes

State Highs State Lows

Community

WunderPhotos

Upload Photos

1,928,300 photos uploaded!

WunderBlog® & News

Nearby

Air Quality

  Air Quality AQ Index Pollutant
Not available.

Snow Depth

Station Depth Elevation

Earthquake Activity

City Distance Mag. Time & Date
Minimum magnitude displayed is 2.5.

Coastal Water Temperatures

Place Temperature

Stations

Nearby Weather Stations

Station Location Temp. Windchill Dew Point Humidity Wind Precip. Elev Updated Type
                   

Watches & Warnings

There are currently no watches in effect.